createdAt,value
2022-11-08T00:00:10.743Z,10.38
2022-11-08T00:02:59.148Z,10.32
2022-11-08T00:05:45.950Z,10.34
2022-11-08T00:08:32.093Z,10.32
2022-11-08T00:11:25.273Z,10.29
2022-11-08T00:14:02.997Z,10.24
2022-11-08T00:16:31.214Z,10.29
2022-11-08T00:19:01.453Z,10.27
2022-11-08T00:21:31.641Z,10.28
2022-11-08T00:23:59.667Z,10.32
2022-11-08T00:26:28.372Z,10.30
2022-11-08T00:28:56.348Z,10.31
2022-11-08T00:31:24.644Z,10.32
2022-11-08T00:33:52.674Z,10.32
2022-11-08T00:36:20.643Z,10.34
2022-11-08T00:38:49.123Z,10.37
2022-11-08T00:41:17.108Z,10.35
2022-11-08T00:43:46.093Z,10.37
2022-11-08T00:46:14.072Z,10.34
2022-11-08T00:48:42.163Z,10.32
2022-11-08T00:51:12.486Z,10.30
2022-11-08T00:53:41.153Z,10.28
2022-11-08T00:56:12.139Z,10.27
2022-11-08T00:58:43.974Z,10.27
2022-11-08T01:01:15.178Z,10.30
2022-11-08T01:03:43.729Z,10.33
2022-11-08T01:06:13.432Z,10.31
2022-11-08T01:08:42.555Z,10.27
2022-11-08T01:11:16.693Z,10.27
2022-11-08T01:13:45.308Z,10.31
2022-11-08T01:16:21.446Z,10.26
2022-11-08T01:18:51.387Z,10.23
2022-11-08T01:21:21.228Z,10.23
2022-11-08T01:23:49.917Z,10.26
2022-11-08T01:26:23.259Z,10.27
2022-11-08T01:28:53.590Z,10.30
2022-11-08T01:31:27.900Z,10.30
2022-11-08T01:33:56.966Z,10.30
2022-11-08T01:36:27.719Z,10.34
2022-11-08T01:38:56.745Z,10.34
2022-11-08T01:41:26.874Z,10.35
2022-11-08T01:43:59.103Z,10.37
2022-11-08T01:46:31.063Z,10.38
2022-11-08T01:49:21.372Z,10.36
2022-11-08T01:51:58.446Z,10.30
2022-11-08T01:54:38.595Z,10.29
2022-11-08T01:57:11.006Z,10.25
2022-11-08T01:59:42.239Z,10.25
2022-11-08T02:02:11.707Z,10.22
2022-11-08T02:04:42.749Z,10.21
2022-11-08T02:07:13.383Z,10.22
2022-11-08T02:09:43.653Z,10.22
2022-11-08T02:12:15.116Z,10.25
2022-11-08T02:14:44.323Z,10.29
2022-11-08T02:17:12.648Z,10.32
2022-11-08T02:19:49.770Z,10.24
2022-11-08T02:22:33.252Z,10.23
2022-11-08T02:25:03.278Z,10.19
2022-11-08T02:27:31.247Z,10.17
2022-11-08T02:29:59.337Z,10.19
2022-11-08T02:32:36.829Z,10.12
2022-11-08T02:35:09.712Z,10.11
2022-11-08T02:37:37.897Z,10.13
2022-11-08T02:40:06.597Z,10.06
2022-11-08T02:42:37.954Z,10.10
2022-11-08T02:45:07.656Z,10.14
2022-11-08T02:47:35.627Z,10.19
2022-11-08T02:50:03.795Z,10.23
2022-11-08T02:52:31.822Z,10.26
2022-11-08T02:54:59.755Z,10.28
2022-11-08T02:57:28.421Z,10.34
2022-11-08T02:59:56.996Z,10.38
2022-11-08T03:02:26.582Z,10.38
2022-11-08T03:04:56.073Z,10.34
2022-11-08T03:07:25.130Z,10.28
2022-11-08T03:09:53.341Z,10.25
2022-11-08T03:12:21.436Z,10.22
2022-11-08T03:14:50.731Z,10.24
2022-11-08T03:17:18.610Z,10.24
2022-11-08T03:19:46.631Z,10.24
2022-11-08T03:22:15.643Z,10.25
2022-11-08T03:24:43.789Z,10.20
2022-11-08T03:27:14.060Z,10.16
2022-11-08T03:29:42.460Z,10.13
2022-11-08T03:32:11.793Z,10.16
2022-11-08T03:34:39.924Z,10.16
2022-11-08T03:37:10.880Z,10.19
2022-11-08T03:39:38.832Z,10.20
2022-11-08T03:42:08.151Z,10.19
2022-11-08T03:44:36.102Z,10.24
2022-11-08T03:47:04.079Z,10.27
2022-11-08T03:49:32.016Z,10.25
2022-11-08T03:52:00.073Z,10.27
2022-11-08T03:54:29.664Z,10.30
2022-11-08T03:57:00.988Z,10.29
2022-11-08T03:59:29.677Z,10.27
2022-11-08T04:01:58.202Z,10.27
2022-11-08T04:04:26.653Z,10.29
2022-11-08T04:06:54.644Z,10.32
2022-11-08T04:09:22.930Z,10.29
2022-11-08T04:12:29.482Z,10.29
2022-11-08T04:15:15.874Z,10.26
2022-11-08T04:18:07.173Z,10.29
2022-11-08T04:21:01.113Z,10.35
2022-11-08T04:23:30.556Z,10.36
2022-11-08T04:26:01.754Z,10.36
2022-11-08T04:28:32.281Z,10.36
2022-11-08T04:31:03.626Z,10.35
2022-11-08T04:33:33.143Z,10.35
2022-11-08T04:36:03.378Z,10.36
2022-11-08T04:38:33.348Z,10.33
2022-11-08T04:41:03.686Z,10.31
2022-11-08T04:43:32.623Z,10.30
2022-11-08T04:46:09.186Z,10.32
2022-11-08T04:48:37.677Z,10.30
2022-11-08T04:51:32.536Z,10.26
2022-11-08T04:54:02.192Z,10.23
2022-11-08T04:56:31.543Z,10.24
2022-11-08T04:59:00.872Z,10.24
2022-11-08T05:01:31.447Z,10.25
2022-11-08T05:03:59.865Z,10.22
2022-11-08T05:06:31.790Z,10.23
2022-11-08T05:09:01.017Z,10.25
2022-11-08T05:11:30.309Z,10.22
2022-11-08T05:14:01.251Z,10.14
2022-11-08T05:16:33.144Z,10.13
2022-11-08T05:19:01.989Z,10.18
2022-11-08T05:21:49.057Z,10.15
2022-11-08T05:24:18.378Z,10.20
2022-11-08T05:26:49.619Z,10.20
2022-11-08T05:29:17.717Z,10.23
2022-11-08T05:31:46.571Z,10.26
2022-11-08T05:34:14.593Z,10.29
2022-11-08T05:36:44.227Z,10.30
2022-11-08T05:39:12.252Z,10.33
2022-11-08T05:41:42.141Z,10.35
2022-11-08T05:44:10.113Z,10.37
2022-11-08T05:46:38.063Z,10.38
2022-11-08T05:49:08.659Z,10.38
2022-11-08T05:51:37.332Z,10.40
2022-11-08T05:54:05.665Z,10.42
2022-11-08T05:56:34.303Z,10.44
2022-11-08T05:59:02.994Z,10.33
2022-11-08T06:01:32.576Z,10.40
2022-11-08T06:04:00.937Z,10.42
2022-11-08T06:06:29.053Z,10.42
2022-11-08T06:08:57.130Z,10.46
2022-11-08T06:11:27.992Z,10.50
2022-11-08T06:13:57.948Z,10.52
2022-11-08T06:16:27.086Z,10.55
2022-11-08T06:18:55.884Z,10.55
2022-11-08T06:21:24.120Z,10.56
2022-11-08T06:23:54.793Z,10.55
2022-11-08T06:26:24.276Z,10.53
2022-11-08T06:28:52.305Z,10.56
2022-11-08T06:31:24.932Z,10.57
2022-11-08T06:33:53.129Z,10.57
2022-11-08T06:36:22.455Z,10.44
2022-11-08T06:38:54.588Z,10.47
2022-11-08T06:41:23.680Z,10.48
2022-11-08T06:43:51.854Z,10.53
2022-11-08T06:46:20.618Z,10.58
2022-11-08T06:48:48.808Z,10.63
2022-11-08T06:51:17.324Z,10.67
2022-11-08T06:53:45.579Z,10.68
2022-11-08T06:56:15.008Z,10.57
2022-11-08T06:58:43.176Z,10.60
2022-11-08T07:01:13.925Z,10.65
2022-11-08T07:03:44.326Z,10.58
2022-11-08T07:06:12.982Z,10.63
2022-11-08T07:08:41.402Z,10.69
2022-11-08T07:11:10.361Z,10.79
2022-11-08T07:13:38.707Z,10.71
2022-11-08T07:16:11.628Z,10.78
2022-11-08T07:18:40.059Z,10.92
2022-11-08T07:21:08.240Z,10.97
2022-11-08T07:23:36.701Z,10.95
2022-11-08T07:26:06.008Z,11.02
2022-11-08T07:28:34.075Z,11.08
2022-11-08T07:31:05.331Z,11.11
2022-11-08T07:33:35.300Z,11.16
2022-11-08T07:36:03.721Z,11.17
2022-11-08T07:38:32.310Z,11.19
2022-11-08T07:41:01.811Z,11.22
2022-11-08T07:43:30.585Z,11.30
2022-11-08T07:46:09.963Z,11.34
2022-11-08T07:48:40.071Z,11.36
2022-11-08T07:51:08.025Z,11.39
2022-11-08T07:53:37.863Z,11.35
2022-11-08T07:56:07.957Z,11.42
2022-11-08T07:58:37.530Z,11.29
2022-11-08T08:01:10.776Z,11.12
2022-11-08T08:03:38.811Z,11.21
2022-11-08T08:06:06.957Z,11.29
2022-11-08T08:08:35.134Z,11.32
2022-11-08T08:11:03.827Z,11.41
2022-11-08T08:13:32.198Z,11.30
2022-11-08T08:16:01.299Z,11.40
2022-11-08T08:18:30.589Z,11.50
2022-11-08T08:20:58.821Z,11.43
2022-11-08T08:23:27.494Z,11.32
2022-11-08T08:25:56.201Z,11.46
2022-11-08T08:28:24.473Z,11.47
2022-11-08T08:30:52.964Z,11.54
2022-11-08T08:33:29.415Z,11.63
2022-11-08T08:36:05.415Z,11.73
2022-11-08T08:38:38.707Z,11.78
2022-11-08T08:41:09.621Z,11.83
2022-11-08T08:43:37.878Z,11.73
2022-11-08T08:46:07.918Z,11.62
2022-11-08T08:48:38.562Z,11.78
2022-11-08T08:51:06.724Z,11.90
2022-11-08T08:53:36.130Z,11.91
2022-11-08T08:56:05.882Z,12.04
2022-11-08T08:58:34.664Z,12.17
2022-11-08T09:03:53.652Z,12.41
2022-11-08T09:06:21.897Z,12.45
2022-11-08T09:08:50.112Z,12.36
2022-11-08T09:11:18.974Z,12.52
2022-11-08T09:13:47.176Z,12.62
2022-11-08T09:16:15.570Z,12.76
2022-11-08T09:18:44.032Z,12.88
2022-11-08T09:21:12.017Z,12.97
2022-11-08T09:23:41.598Z,13.02
2022-11-08T09:26:10.708Z,12.76
2022-11-08T09:28:39.072Z,12.91
2022-11-08T09:31:09.836Z,12.84
2022-11-08T09:33:41.248Z,12.99
2022-11-08T09:36:13.538Z,13.02
2022-11-08T09:38:42.113Z,13.09
2022-11-08T09:41:20.953Z,13.10
2022-11-08T09:44:16.663Z,13.03
2022-11-08T09:46:57.147Z,13.11
2022-11-08T09:50:01.478Z,12.95
2022-11-08T09:52:35.606Z,12.97
2022-11-08T09:55:37.640Z,13.01
2022-11-08T09:58:45.592Z,13.01
2022-11-08T10:01:14.195Z,12.90
2022-11-08T10:03:59.003Z,12.92
2022-11-08T10:06:49.992Z,12.98
2022-11-08T10:09:49.716Z,12.98
2022-11-08T10:12:21.190Z,13.05
2022-11-08T10:15:01.850Z,13.14
2022-11-08T10:17:34.903Z,13.12
2022-11-08T10:20:09.316Z,13.00
2022-11-08T10:23:14.799Z,13.10
2022-11-08T10:25:48.255Z,12.97
2022-11-08T10:28:24.081Z,12.86
2022-11-08T10:30:54.135Z,13.04
2022-11-08T10:33:31.126Z,13.20
2022-11-08T10:36:06.971Z,13.31
2022-11-08T10:39:08.996Z,13.51
2022-11-08T10:41:44.066Z,13.63
2022-11-08T10:44:19.999Z,13.67
2022-11-08T10:46:59.506Z,13.52
2022-11-08T10:49:32.387Z,13.31
2022-11-08T10:52:12.812Z,13.38
2022-11-08T10:54:42.769Z,13.32
2022-11-08T10:57:24.204Z,13.20
2022-11-08T10:59:54.050Z,13.20
2022-11-08T11:02:22.093Z,13.19
2022-11-08T11:04:52.983Z,13.17
2022-11-08T11:07:36.309Z,13.11
2022-11-08T11:10:26.605Z,13.17
2022-11-08T11:13:12.518Z,13.25
2022-11-08T11:15:59.013Z,13.34
2022-11-08T11:18:32.613Z,13.41
2022-11-08T11:21:06.515Z,13.50
2022-11-08T11:23:35.967Z,13.60
2022-11-08T11:26:06.775Z,13.63
2022-11-08T11:28:38.138Z,13.62
2022-11-08T11:31:17.178Z,13.60
2022-11-08T11:33:54.468Z,13.65
2022-11-08T11:36:28.138Z,13.61
2022-11-08T11:39:11.193Z,13.56
2022-11-08T11:41:51.125Z,13.42
2022-11-08T11:44:28.699Z,13.37
2022-11-08T11:47:03.678Z,13.41
2022-11-08T11:49:31.907Z,13.37
2022-11-08T11:52:02.210Z,13.38
2022-11-08T11:54:35.325Z,13.36
2022-11-08T11:57:39.768Z,13.33
2022-11-08T12:00:15.160Z,13.33
2022-11-08T12:03:09.062Z,13.44
2022-11-08T12:06:03.128Z,13.25
2022-11-08T12:08:51.171Z,13.19
2022-11-08T12:12:15.315Z,13.35
2022-11-08T12:14:49.428Z,13.36
2022-11-08T12:17:53.767Z,13.41
2022-11-08T12:20:29.195Z,13.54
2022-11-08T12:23:35.935Z,13.56
2022-11-08T12:26:21.737Z,13.62
2022-11-08T12:28:56.127Z,13.80
2022-11-08T12:32:00.935Z,13.94
2022-11-08T12:34:53.805Z,13.84
2022-11-08T12:37:50.458Z,13.68
2022-11-08T12:41:07.960Z,13.79
2022-11-08T12:44:07.066Z,13.82
2022-11-08T12:47:01.793Z,13.70
2022-11-08T12:50:04.566Z,13.84
2022-11-08T12:52:36.716Z,14.02
2022-11-08T12:55:14.035Z,14.08
2022-11-08T12:57:45.900Z,14.06
2022-11-08T13:00:22.463Z,14.04
2022-11-08T13:03:30.850Z,14.08
2022-11-08T13:06:13.491Z,13.81
2022-11-08T13:08:57.517Z,13.86
2022-11-08T13:12:07.953Z,13.90
2022-11-08T13:14:41.138Z,13.87
2022-11-08T13:17:19.970Z,13.50
2022-11-08T13:20:04.445Z,13.55
2022-11-08T13:22:48.024Z,13.60
2022-11-08T13:25:19.231Z,13.62
2022-11-08T13:27:49.175Z,13.66
2022-11-08T13:30:20.490Z,13.67
2022-11-08T13:33:13.839Z,13.62
2022-11-08T13:36:06.738Z,13.66
2022-11-08T13:38:45.350Z,13.67
2022-11-08T13:41:17.186Z,13.71
2022-11-08T13:43:47.808Z,13.73
2022-11-08T13:46:28.522Z,13.69
2022-11-08T13:49:19.103Z,13.64
2022-11-08T13:51:48.316Z,13.66
2022-11-08T13:54:25.400Z,13.61
2022-11-08T13:56:58.219Z,13.55
2022-11-08T13:59:33.832Z,13.47
2022-11-08T14:02:22.024Z,13.43
2022-11-08T14:04:50.490Z,13.45
2022-11-08T14:07:28.709Z,13.45
2022-11-08T14:10:32.502Z,13.42
2022-11-08T14:13:08.800Z,13.45
2022-11-08T14:15:58.761Z,13.44
2022-11-08T14:18:30.378Z,13.44
2022-11-08T14:20:59.339Z,13.39
2022-11-08T14:23:39.684Z,13.32
2022-11-08T14:26:15.749Z,13.33
2022-11-08T14:28:47.038Z,13.30
2022-11-08T14:31:26.023Z,13.21
2022-11-08T14:33:55.477Z,13.17
2022-11-08T14:36:28.913Z,13.13
2022-11-08T14:39:12.028Z,13.11
2022-11-08T14:41:45.610Z,13.08
2022-11-08T14:44:16.392Z,13.07
2022-11-08T14:46:45.573Z,13.03
2022-11-08T14:49:14.042Z,12.99
2022-11-08T14:51:43.590Z,12.95
2022-11-08T14:54:19.902Z,12.91
2022-11-08T14:56:48.996Z,12.90
2022-11-08T14:59:18.890Z,12.87
2022-11-08T15:01:49.440Z,12.77
2022-11-08T15:04:21.640Z,12.69
2022-11-08T15:06:56.428Z,12.70
2022-11-08T15:09:29.669Z,12.66
2022-11-08T15:12:01.946Z,12.57
2022-11-08T15:14:34.424Z,12.52
2022-11-08T15:17:04.453Z,12.49
2022-11-08T15:19:46.577Z,12.43
2022-11-08T15:22:31.309Z,12.30
2022-11-08T15:25:18.598Z,12.26
2022-11-08T15:27:52.594Z,12.25
2022-11-08T15:30:23.699Z,12.26
2022-11-08T15:32:52.027Z,12.24
2022-11-08T15:35:34.854Z,12.16
2022-11-08T15:38:05.939Z,12.16
2022-11-08T15:40:36.487Z,12.19
2022-11-08T15:43:04.525Z,12.22
2022-11-08T15:45:35.323Z,12.24
2022-11-08T15:48:21.866Z,12.25
2022-11-08T15:50:50.694Z,12.20
2022-11-08T15:53:19.644Z,12.16
2022-11-08T15:56:06.231Z,12.09
2022-11-08T15:58:40.229Z,12.02
2022-11-08T16:01:21.629Z,11.93
2022-11-08T16:03:49.739Z,11.84
2022-11-08T16:06:17.738Z,11.77
2022-11-08T16:08:45.661Z,11.70
2022-11-08T16:11:21.378Z,11.66
2022-11-08T16:13:54.382Z,11.62
2022-11-08T16:16:24.758Z,11.52
2022-11-08T16:18:52.752Z,11.45
2022-11-08T16:21:20.830Z,11.41
2022-11-08T16:23:49.363Z,11.35
2022-11-08T16:26:19.388Z,11.27
2022-11-08T16:28:47.724Z,11.21
2022-11-08T16:31:18.685Z,11.15
2022-11-08T16:33:49.806Z,11.07
2022-11-08T16:36:23.857Z,11.02
2022-11-08T16:38:54.155Z,10.94
2022-11-08T16:41:29.454Z,10.86
2022-11-08T16:44:00.309Z,10.77
2022-11-08T16:46:29.667Z,10.70
2022-11-08T16:48:59.281Z,10.63
2022-11-08T16:51:29.444Z,10.58
2022-11-08T16:53:58.075Z,10.53
2022-11-08T16:56:26.632Z,10.48
2022-11-08T16:58:58.034Z,10.43
2022-11-08T17:01:33.767Z,10.38
2022-11-08T17:04:02.150Z,10.31
2022-11-08T17:06:30.374Z,10.25
2022-11-08T17:08:59.040Z,10.17
2022-11-08T17:11:27.247Z,10.10
2022-11-08T17:13:56.330Z,10.04
2022-11-08T17:16:25.019Z,9.97
2022-11-08T17:18:54.084Z,9.89
2022-11-08T17:21:43.499Z,9.84
2022-11-08T17:24:10.926Z,9.80
2022-11-08T17:26:40.164Z,9.77
2022-11-08T17:29:10.702Z,9.73
2022-11-08T17:31:41.062Z,9.69
2022-11-08T17:34:10.455Z,9.65
2022-11-08T17:36:38.667Z,9.62
2022-11-08T17:39:07.681Z,9.58
2022-11-08T17:41:35.650Z,9.53
2022-11-08T17:44:04.160Z,9.46
2022-11-08T17:46:32.220Z,9.39
2022-11-08T17:49:10.510Z,9.33
2022-11-08T17:51:38.546Z,9.26
2022-11-08T17:54:07.834Z,9.20
2022-11-08T17:56:36.391Z,9.14
2022-11-08T17:59:04.828Z,9.08
2022-11-08T18:01:34.110Z,9.04
2022-11-08T18:04:03.795Z,9.01
2022-11-08T18:06:32.272Z,8.97
2022-11-08T18:09:01.029Z,8.95
2022-11-08T18:11:29.443Z,8.92
2022-11-08T18:13:57.901Z,8.89
2022-11-08T18:16:28.454Z,8.85
2022-11-08T18:18:59.323Z,8.82
2022-11-08T18:21:27.373Z,8.78
2022-11-08T18:23:56.051Z,8.72
2022-11-08T18:26:24.076Z,8.67
2022-11-08T18:28:53.620Z,8.64
2022-11-08T18:31:24.468Z,8.61
2022-11-08T18:33:52.987Z,8.58
2022-11-08T18:36:24.166Z,8.53
2022-11-08T18:38:53.187Z,8.46
2022-11-08T18:41:28.101Z,8.41
2022-11-08T18:43:59.382Z,8.35
2022-11-08T18:46:33.058Z,8.31
2022-11-08T18:49:01.069Z,8.28
2022-11-08T18:51:29.566Z,8.23
2022-11-08T18:53:58.104Z,8.19
2022-11-08T18:56:27.966Z,8.15
2022-11-08T18:58:56.214Z,8.11
2022-11-08T19:01:24.782Z,8.08
2022-11-08T19:03:53.513Z,8.02
2022-11-08T19:06:22.853Z,7.97
2022-11-08T19:08:51.433Z,7.96
2022-11-08T19:11:22.950Z,7.93
2022-11-08T19:13:51.044Z,7.89
2022-11-08T19:16:20.738Z,7.84
2022-11-08T19:18:50.115Z,7.80
2022-11-08T19:21:23.214Z,7.76
2022-11-08T19:23:51.901Z,7.77
2022-11-08T19:26:22.562Z,7.73
2022-11-08T19:28:51.547Z,7.71
2022-11-08T19:31:22.437Z,7.68
2022-11-08T19:33:53.388Z,7.66
2022-11-08T19:36:24.893Z,7.61
2022-11-08T19:38:55.068Z,7.57
2022-11-08T19:41:26.648Z,7.53
2022-11-08T19:43:57.354Z,7.47
2022-11-08T19:46:29.425Z,7.42
2022-11-08T19:48:59.712Z,7.35
2022-11-08T19:51:31.703Z,7.27
2022-11-08T19:54:03.156Z,7.19
2022-11-08T19:57:02.593Z,7.14
2022-11-08T19:59:21.493Z,7.08
2022-11-08T20:01:50.181Z,7.02
2022-11-08T20:04:19.810Z,6.97
2022-11-08T20:06:49.859Z,6.94
2022-11-08T20:09:17.919Z,6.90
2022-11-08T20:11:45.968Z,6.86
2022-11-08T20:14:14.461Z,6.82
2022-11-08T20:16:49.254Z,6.80
2022-11-08T20:19:21.410Z,6.78
2022-11-08T20:21:50.040Z,6.75
2022-11-08T20:24:19.051Z,6.71
2022-11-08T20:26:47.847Z,6.69
2022-11-08T20:29:16.207Z,6.67
2022-11-08T20:31:44.912Z,6.63
2022-11-08T20:34:13.455Z,6.61
2022-11-08T20:36:44.221Z,6.56
2022-11-08T20:39:16.106Z,6.52
2022-11-08T20:41:44.244Z,6.46
2022-11-08T20:44:14.268Z,6.43
2022-11-08T20:46:42.447Z,6.40
2022-11-08T20:49:10.945Z,6.36
2022-11-08T20:51:40.027Z,6.32
2022-11-08T20:54:10.595Z,6.31
2022-11-08T20:56:39.751Z,6.30
2022-11-08T20:59:07.999Z,6.29
2022-11-08T21:01:36.784Z,6.30
2022-11-08T21:04:04.903Z,6.31
2022-11-08T21:06:36.433Z,6.31
2022-11-08T21:11:58.853Z,6.28
2022-11-08T21:14:26.878Z,6.28
2022-11-08T21:19:45.157Z,6.21
2022-11-08T21:22:15.996Z,6.17
2022-11-08T21:24:46.112Z,6.14
2022-11-08T21:27:15.544Z,6.08
2022-11-08T21:29:46.148Z,6.08
2022-11-08T21:32:14.389Z,6.08
2022-11-08T21:34:46.087Z,6.10
2022-11-08T21:37:14.507Z,6.08
2022-11-08T21:39:42.904Z,6.08
2022-11-08T21:42:11.065Z,6.08
2022-11-08T21:44:39.107Z,6.11
2022-11-08T21:47:07.258Z,6.11
2022-11-08T21:49:37.945Z,6.07
2022-11-08T21:52:05.927Z,6.04
2022-11-08T21:54:33.919Z,5.98
2022-11-08T21:57:02.067Z,5.92
2022-11-08T21:59:29.949Z,5.94
2022-11-08T22:01:57.933Z,5.97
2022-11-08T22:04:25.823Z,6.00
2022-11-08T22:06:53.936Z,6.04
2022-11-08T22:09:24.451Z,6.03
2022-11-08T22:11:56.817Z,6.05
2022-11-08T22:14:26.086Z,6.07
2022-11-08T22:16:54.093Z,6.12
2022-11-08T22:19:22.142Z,6.15
2022-11-08T22:21:52.306Z,6.17
2022-11-08T22:24:21.292Z,6.14
2022-11-08T22:26:51.719Z,6.12
2022-11-08T22:29:20.061Z,6.12
2022-11-08T22:31:48.303Z,6.13
2022-11-08T22:34:16.617Z,6.13
2022-11-08T22:36:46.103Z,6.20
2022-11-08T22:39:16.407Z,6.22
2022-11-08T22:41:45.676Z,6.26
2022-11-08T22:44:14.412Z,6.28
2022-11-08T22:46:43.464Z,6.29
2022-11-08T22:49:12.452Z,6.28
2022-11-08T22:51:41.360Z,6.30
2022-11-08T22:54:09.340Z,6.35
2022-11-08T22:56:37.392Z,6.33
2022-11-08T22:59:05.390Z,6.33
2022-11-08T23:01:34.323Z,6.30
2022-11-08T23:04:02.399Z,6.28
2022-11-08T23:06:30.494Z,6.28
2022-11-08T23:08:58.565Z,6.28
2022-11-08T23:11:45.174Z,6.28
2022-11-08T23:14:36.784Z,6.29
2022-11-08T23:17:08.311Z,6.33
2022-11-08T23:19:54.647Z,6.37
2022-11-08T23:22:41.419Z,6.39
2022-11-08T23:25:09.805Z,6.40
2022-11-08T23:27:58.237Z,6.40
2022-11-08T23:30:44.492Z,6.42
2022-11-08T23:33:12.662Z,6.44
2022-11-08T23:36:00.581Z,6.46
2022-11-08T23:38:29.229Z,6.48
2022-11-08T23:41:17.790Z,6.47
2022-11-08T23:44:04.177Z,6.47
2022-11-08T23:46:32.875Z,6.49
2022-11-08T23:49:01.744Z,6.51
2022-11-08T23:51:30.613Z,6.56
2022-11-08T23:53:59.232Z,6.60
2022-11-08T23:56:28.694Z,6.60
2022-11-08T23:58:59.482Z,6.61
